createdAt,value
2022-11-07T00:00:16.556Z,-1.49
2022-11-07T00:02:19.364Z,-1.52
2022-11-07T00:04:22.106Z,-1.54
2022-11-07T00:06:24.683Z,-1.53
2022-11-07T00:08:32.118Z,-1.54
2022-11-07T00:10:34.761Z,-1.55
2022-11-07T00:12:37.365Z,-1.53
2022-11-07T00:14:40.019Z,-1.57
2022-11-07T00:16:43.358Z,-1.49
2022-11-07T00:18:45.998Z,-1.49
2022-11-07T00:20:48.597Z,-1.49
2022-11-07T00:22:51.260Z,-1.51
2022-11-07T00:24:53.943Z,-1.50
2022-11-07T00:26:56.679Z,-1.46
2022-11-07T00:28:59.454Z,-1.43
2022-11-07T00:31:02.201Z,-1.41
2022-11-07T00:33:05.064Z,-1.39
2022-11-07T00:35:07.952Z,-1.43
2022-11-07T00:37:10.497Z,-1.44
2022-11-07T00:39:13.164Z,-1.42
2022-11-07T00:41:16.398Z,-1.43
2022-11-07T00:43:19.009Z,-1.46
2022-11-07T00:45:21.582Z,-1.44
2022-11-07T00:47:24.380Z,-1.44
2022-11-07T00:49:26.961Z,-1.47
2022-11-07T00:51:29.721Z,-1.48
2022-11-07T00:53:32.348Z,-1.51
2022-11-07T00:55:35.502Z,-1.53
2022-11-07T00:57:38.156Z,-1.52
2022-11-07T00:59:40.770Z,-1.52
2022-11-07T01:01:43.568Z,-1.47
2022-11-07T01:04:06.024Z,-1.47
2022-11-07T01:06:09.195Z,-1.55
2022-11-07T01:08:11.894Z,-1.55
2022-11-07T01:10:14.525Z,-1.54
2022-11-07T01:12:17.203Z,-1.56
2022-11-07T01:14:21.638Z,-1.56
2022-11-07T01:16:24.824Z,-1.51
2022-11-07T01:18:27.597Z,-1.51
2022-11-07T01:20:30.234Z,-1.52
2022-11-07T01:22:32.846Z,-1.53
2022-11-07T01:24:35.508Z,-1.49
2022-11-07T01:26:40.464Z,-1.48
2022-11-07T01:28:43.455Z,-1.48
2022-11-07T01:30:46.359Z,-1.48
2022-11-07T01:32:49.019Z,-1.49
2022-11-07T01:34:51.559Z,-1.47
2022-11-07T01:36:54.286Z,-1.57
2022-11-07T01:38:56.937Z,-1.51
2022-11-07T01:41:18.240Z,-1.55
2022-11-07T01:43:20.862Z,-1.57
2022-11-07T01:45:29.106Z,-1.61
2022-11-07T01:47:37.460Z,-1.61
2022-11-07T01:49:42.727Z,-1.59
2022-11-07T01:51:50.838Z,-1.57
2022-11-07T01:53:54.717Z,-1.57
2022-11-07T01:55:57.506Z,-1.57
2022-11-07T01:58:08.057Z,-1.58
2022-11-07T02:00:14.076Z,-1.50
2022-11-07T02:02:17.060Z,-1.48
2022-11-07T02:04:21.855Z,-1.43
2022-11-07T02:06:42.251Z,-1.44
2022-11-07T02:08:46.995Z,-1.42
2022-11-07T02:10:50.380Z,-1.40
2022-11-07T02:12:54.126Z,-1.41
2022-11-07T02:15:16.729Z,-1.42
2022-11-07T02:17:19.742Z,-1.40
2022-11-07T02:19:40.568Z,-1.39
2022-11-07T02:22:04.908Z,-1.44
2022-11-07T02:24:07.500Z,-1.41
2022-11-07T02:26:10.692Z,-1.45
2022-11-07T02:28:16.016Z,-1.44
2022-11-07T02:30:23.829Z,-1.52
2022-11-07T02:32:26.453Z,-1.52
2022-11-07T02:34:29.208Z,-1.56
2022-11-07T02:36:32.068Z,-1.57
2022-11-07T02:38:37.329Z,-1.57
2022-11-07T02:40:40.521Z,-1.56
2022-11-07T02:42:46.226Z,-1.52
2022-11-07T02:44:49.037Z,-1.55
2022-11-07T02:46:51.957Z,-1.60
2022-11-07T02:48:57.146Z,-1.56
2022-11-07T02:51:00.034Z,-1.55
2022-11-07T02:53:02.656Z,-1.54
2022-11-07T02:55:07.262Z,-1.54
2022-11-07T02:57:09.997Z,-1.53
2022-11-07T02:59:12.656Z,-1.50
2022-11-07T03:01:15.984Z,-1.55
2022-11-07T03:03:18.655Z,-1.53
2022-11-07T03:05:21.470Z,-1.53
2022-11-07T03:07:24.369Z,-1.53
2022-11-07T03:09:26.926Z,-1.55
2022-11-07T03:11:29.538Z,-1.60
2022-11-07T03:13:32.222Z,-1.60
2022-11-07T03:15:34.773Z,-1.60
2022-11-07T03:17:37.907Z,-1.58
2022-11-07T03:19:40.607Z,-1.59
2022-11-07T03:21:43.302Z,-1.60
2022-11-07T03:23:45.956Z,-1.63
2022-11-07T03:25:48.612Z,-1.65
2022-11-07T03:27:51.540Z,-1.64
2022-11-07T03:29:54.186Z,-1.62
2022-11-07T03:31:56.889Z,-1.66
2022-11-07T03:33:59.473Z,-1.63
2022-11-07T03:36:02.194Z,-1.67
2022-11-07T03:38:04.888Z,-1.74
2022-11-07T03:40:08.000Z,-1.71
2022-11-07T03:42:10.587Z,-1.70
2022-11-07T03:44:13.240Z,-1.75
2022-11-07T03:46:16.917Z,-1.76
2022-11-07T03:48:19.509Z,-1.80
2022-11-07T03:50:22.808Z,-1.75
2022-11-07T03:52:25.439Z,-1.70
2022-11-07T03:54:28.044Z,-1.66
2022-11-07T03:56:30.678Z,-1.67
2022-11-07T03:58:33.528Z,-1.69
2022-11-07T04:00:36.229Z,-1.71
2022-11-07T04:02:39.099Z,-1.73
2022-11-07T04:04:41.974Z,-1.71
2022-11-07T04:06:44.759Z,-1.75
2022-11-07T04:08:47.435Z,-1.63
2022-11-07T04:10:50.064Z,-1.65
2022-11-07T04:13:11.308Z,-1.62
2022-11-07T04:15:32.918Z,-1.59
2022-11-07T04:17:35.526Z,-1.63
2022-11-07T04:19:38.094Z,-1.67
2022-11-07T04:21:40.761Z,-1.65
2022-11-07T04:23:43.383Z,-1.61
2022-11-07T04:26:04.481Z,-1.58
2022-11-07T04:28:07.423Z,-1.59
2022-11-07T04:30:28.301Z,-1.65
2022-11-07T04:32:30.891Z,-1.62
2022-11-07T04:34:33.610Z,-1.57
2022-11-07T04:36:36.430Z,-1.59
2022-11-07T04:38:38.993Z,-1.57
2022-11-07T04:40:41.649Z,-1.56
2022-11-07T04:42:45.367Z,-1.58
2022-11-07T04:44:47.910Z,-1.57
2022-11-07T04:46:50.602Z,-1.55
2022-11-07T04:48:53.159Z,-1.53
2022-11-07T04:50:55.838Z,-1.55
2022-11-07T04:52:58.824Z,-1.55
2022-11-07T04:55:01.554Z,-1.55
2022-11-07T04:57:06.439Z,-1.53
2022-11-07T04:59:09.338Z,-1.55
2022-11-07T05:01:12.055Z,-1.54
2022-11-07T05:03:15.066Z,-1.52
2022-11-07T05:05:18.758Z,-1.53
2022-11-07T05:07:21.508Z,-1.46
2022-11-07T05:09:24.082Z,-1.44
2022-11-07T05:11:26.742Z,-1.38
2022-11-07T05:13:29.304Z,-1.35
2022-11-07T05:15:31.903Z,-1.25
2022-11-07T05:17:34.604Z,-1.22
2022-11-07T05:19:37.214Z,-1.18
2022-11-07T05:21:39.812Z,-1.21
2022-11-07T05:23:42.487Z,-1.16
2022-11-07T05:25:52.238Z,-1.17
2022-11-07T05:27:57.734Z,-1.16
2022-11-07T05:30:00.383Z,-1.15
2022-11-07T05:32:03.029Z,-1.16
2022-11-07T05:34:05.582Z,-1.13
2022-11-07T05:36:13.696Z,-1.13
2022-11-07T05:38:16.357Z,-1.11
2022-11-07T05:40:18.913Z,-1.07
2022-11-07T05:42:21.614Z,-1.05
2022-11-07T05:44:24.203Z,-0.96
2022-11-07T05:46:26.899Z,-0.92
2022-11-07T05:48:30.792Z,-0.88
2022-11-07T05:50:33.818Z,-0.86
2022-11-07T05:52:36.420Z,-0.81
2022-11-07T05:54:39.327Z,-0.80
2022-11-07T05:56:44.139Z,-0.79
2022-11-07T05:58:46.716Z,-0.82
2022-11-07T06:00:49.888Z,-0.80
2022-11-07T06:02:56.787Z,-0.77
2022-11-07T06:04:59.428Z,-0.79
2022-11-07T06:07:02.103Z,-0.75
2022-11-07T06:09:04.840Z,-0.74
2022-11-07T06:11:07.494Z,-0.73
2022-11-07T06:13:16.012Z,-0.69
2022-11-07T06:15:18.816Z,-0.76
2022-11-07T06:17:21.395Z,-0.69
2022-11-07T06:19:24.108Z,-0.68
2022-11-07T06:21:26.769Z,-0.75
2022-11-07T06:23:29.362Z,-0.78
2022-11-07T06:25:33.099Z,-0.79
2022-11-07T06:27:35.696Z,-0.78
2022-11-07T06:29:38.273Z,-0.78
2022-11-07T06:31:41.055Z,-0.81
2022-11-07T06:33:43.626Z,-0.82
2022-11-07T06:35:46.416Z,-0.83
2022-11-07T06:37:49.066Z,-0.81
2022-11-07T06:39:51.719Z,-0.81
2022-11-07T06:41:54.336Z,-0.78
2022-11-07T06:43:57.048Z,-0.74
2022-11-07T06:46:02.800Z,-0.71
2022-11-07T06:48:05.972Z,-0.70
2022-11-07T06:50:09.248Z,-0.69
2022-11-07T06:52:12.023Z,-0.69
2022-11-07T06:54:14.645Z,-0.61
2022-11-07T06:56:17.445Z,-0.63
2022-11-07T06:58:20.684Z,-0.58
2022-11-07T07:00:23.296Z,-0.57
2022-11-07T07:02:52.133Z,-0.55
2022-11-07T07:04:49.262Z,-0.57
2022-11-07T07:06:51.863Z,-0.52
2022-11-07T07:08:55.123Z,-0.53
2022-11-07T07:11:02.289Z,-0.51
2022-11-07T07:13:04.955Z,-0.51
2022-11-07T07:15:08.503Z,-0.53
2022-11-07T07:17:20.245Z,-0.58
2022-11-07T07:19:22.826Z,-0.55
2022-11-07T07:21:26.418Z,-0.54
2022-11-07T07:23:29.114Z,-0.49
2022-11-07T07:25:31.704Z,-0.49
2022-11-07T07:27:34.373Z,-0.50
2022-11-07T07:29:36.969Z,-0.51
2022-11-07T07:31:39.568Z,-0.48
2022-11-07T07:33:43.000Z,-0.43
2022-11-07T07:35:45.642Z,-0.38
2022-11-07T07:37:52.246Z,-0.36
2022-11-07T07:39:55.020Z,-0.33
2022-11-07T07:41:57.694Z,-0.37
2022-11-07T07:44:00.292Z,-0.37
2022-11-07T07:46:05.858Z,-0.36
2022-11-07T07:48:08.560Z,-0.44
2022-11-07T07:50:13.066Z,-0.43
2022-11-07T07:52:15.742Z,-0.48
2022-11-07T07:54:18.458Z,-0.47
2022-11-07T07:56:21.217Z,-0.41
2022-11-07T07:58:25.136Z,-0.41
2022-11-07T08:00:27.821Z,-0.36
2022-11-07T08:02:30.469Z,-0.34
2022-11-07T08:04:33.554Z,-0.32
2022-11-07T08:06:37.959Z,-0.29
2022-11-07T08:08:40.596Z,-0.26
2022-11-07T08:10:43.542Z,-0.25
2022-11-07T08:12:48.105Z,-0.24
2022-11-07T08:14:50.739Z,-0.24
2022-11-07T08:16:53.385Z,-0.22
2022-11-07T08:18:55.973Z,-0.22
2022-11-07T08:20:58.649Z,-0.20
2022-11-07T08:23:11.056Z,-0.19
2022-11-07T08:25:17.532Z,-0.20
2022-11-07T08:27:20.132Z,-0.19
2022-11-07T08:29:22.796Z,-0.23
2022-11-07T08:31:25.470Z,-0.26
2022-11-07T08:33:28.515Z,-0.31
2022-11-07T08:35:32.070Z,-0.26
2022-11-07T08:37:34.683Z,-0.23
2022-11-07T08:39:37.339Z,-0.20
2022-11-07T08:41:40.472Z,-0.16
2022-11-07T08:43:44.549Z,-0.17
2022-11-07T08:45:50.490Z,-0.19
2022-11-07T08:48:01.334Z,-0.18
2022-11-07T08:50:05.736Z,-0.18
2022-11-07T08:52:09.522Z,-0.19
2022-11-07T08:54:14.008Z,-0.19
2022-11-07T08:56:17.952Z,-0.19
2022-11-07T08:58:25.892Z,-0.21
2022-11-07T09:00:33.691Z,-0.24
2022-11-07T09:05:01.570Z,-0.22
2022-11-07T09:07:07.281Z,-0.23
2022-11-07T09:09:16.351Z,-0.25
2022-11-07T09:11:20.493Z,-0.27
2022-11-07T09:13:23.970Z,-0.23
2022-11-07T09:15:27.839Z,-0.22
2022-11-07T09:17:31.974Z,-0.23
2022-11-07T09:19:35.868Z,-0.21
2022-11-07T09:21:40.021Z,-0.20
2022-11-07T09:23:44.112Z,-0.20
2022-11-07T09:25:48.672Z,-0.19
2022-11-07T09:27:52.908Z,-0.16
2022-11-07T09:29:56.971Z,-0.13
2022-11-07T09:32:12.116Z,-0.10
2022-11-07T09:34:21.618Z,-0.06
2022-11-07T09:36:25.525Z,-0.09
2022-11-07T09:38:30.809Z,-0.09
2022-11-07T09:40:47.062Z,-0.07
2022-11-07T09:43:15.469Z,-0.04
2022-11-07T09:45:20.058Z,-0.03
2022-11-07T09:47:37.922Z,-0.02
2022-11-07T09:49:47.477Z,-0.02
2022-11-07T09:52:03.593Z,-0.04
2022-11-07T09:54:17.677Z,-0.05
2022-11-07T09:56:20.361Z,-0.09
2022-11-07T09:58:30.293Z,-0.17
2022-11-07T10:00:34.150Z,-0.16
2022-11-07T10:02:40.527Z,-0.16
2022-11-07T10:04:45.204Z,-0.13
2022-11-07T10:07:05.350Z,-0.16
2022-11-07T10:09:19.735Z,-0.16
2022-11-07T10:11:45.382Z,-0.19
2022-11-07T10:14:12.112Z,-0.21
2022-11-07T10:16:33.091Z,-0.26
2022-11-07T10:18:56.564Z,-0.26
2022-11-07T10:21:44.009Z,-0.20
2022-11-07T10:24:05.483Z,-0.20
2022-11-07T10:26:12.525Z,-0.23
2022-11-07T10:28:18.233Z,-0.16
2022-11-07T10:30:21.961Z,-0.17
2022-11-07T10:32:29.860Z,-0.17
2022-11-07T10:34:38.181Z,-0.17
2022-11-07T10:36:40.855Z,-0.17
2022-11-07T10:38:43.724Z,-0.20
2022-11-07T10:40:47.253Z,-0.18
2022-11-07T10:42:51.397Z,-0.23
2022-11-07T10:44:55.903Z,-0.22
2022-11-07T10:46:58.663Z,-0.22
2022-11-07T10:49:02.983Z,-0.19
2022-11-07T10:51:06.206Z,-0.13
2022-11-07T10:53:19.645Z,-0.13
2022-11-07T10:55:23.690Z,-0.15
2022-11-07T10:57:30.049Z,-0.16
2022-11-07T10:59:36.906Z,-0.15
2022-11-07T11:01:40.032Z,-0.14
2022-11-07T11:03:46.382Z,-0.13
2022-11-07T11:05:50.430Z,-0.15
2022-11-07T11:07:55.687Z,-0.13
2022-11-07T11:09:58.710Z,-0.16
2022-11-07T11:12:13.057Z,-0.19
2022-11-07T11:14:16.923Z,-0.21
2022-11-07T11:16:31.317Z,-0.20
2022-11-07T11:18:34.037Z,-0.24
2022-11-07T11:21:01.687Z,-0.27
2022-11-07T11:23:13.644Z,-0.30
2022-11-07T11:25:21.444Z,-0.37
2022-11-07T11:27:26.322Z,-0.38
2022-11-07T11:29:42.928Z,-0.35
2022-11-07T11:31:55.010Z,-0.37
2022-11-07T11:34:17.576Z,-0.36
2022-11-07T11:36:25.170Z,-0.45
2022-11-07T11:38:37.797Z,-0.40
2022-11-07T11:40:45.049Z,-0.39
2022-11-07T11:43:17.295Z,-0.39
2022-11-07T11:45:27.598Z,-0.40
2022-11-07T11:47:40.862Z,-0.40
2022-11-07T11:49:59.310Z,-0.38
2022-11-07T11:52:13.295Z,-0.37
2022-11-07T11:54:16.425Z,-0.39
2022-11-07T11:56:46.899Z,-0.40
2022-11-07T11:59:17.791Z,-0.37
2022-11-07T12:01:39.845Z,-0.35
2022-11-07T12:03:57.080Z,-0.37
2022-11-07T12:06:16.296Z,-0.40
2022-11-07T12:08:41.003Z,-0.36
2022-11-07T12:11:14.240Z,-0.33
2022-11-07T12:13:35.077Z,-0.33
2022-11-07T12:15:49.606Z,-0.36
2022-11-07T12:17:58.029Z,-0.37
2022-11-07T12:20:14.215Z,-0.37
2022-11-07T12:22:58.018Z,-0.39
2022-11-07T12:25:15.491Z,-0.44
2022-11-07T12:27:30.099Z,-0.37
2022-11-07T12:29:47.435Z,-0.37
2022-11-07T12:32:02.997Z,-0.36
2022-11-07T12:34:24.268Z,-0.34
2022-11-07T12:36:26.835Z,-0.30
2022-11-07T12:38:53.669Z,-0.31
2022-11-07T12:41:25.256Z,-0.32
2022-11-07T12:43:52.401Z,-0.31
2022-11-07T12:46:06.073Z,-0.33
2022-11-07T12:48:13.008Z,-0.32
2022-11-07T12:50:56.271Z,-0.33
2022-11-07T12:53:16.362Z,-0.33
2022-11-07T12:55:48.215Z,-0.34
2022-11-07T12:57:53.782Z,-0.35
2022-11-07T13:00:06.866Z,-0.37
2022-11-07T13:02:17.160Z,-0.35
2022-11-07T13:04:30.570Z,-0.37
2022-11-07T13:06:55.651Z,-0.37
2022-11-07T13:09:18.314Z,-0.36
2022-11-07T13:11:41.256Z,-0.33
2022-11-07T13:14:17.227Z,-0.32
2022-11-07T13:16:25.796Z,-0.31
2022-11-07T13:18:28.728Z,-0.33
2022-11-07T13:20:31.555Z,-0.30
2022-11-07T13:22:37.555Z,-0.29
2022-11-07T13:24:55.177Z,-0.31
2022-11-07T13:26:58.911Z,-0.31
2022-11-07T13:29:02.839Z,-0.28
2022-11-07T13:31:08.035Z,-0.25
2022-11-07T13:33:31.640Z,-0.23
2022-11-07T13:35:37.357Z,-0.22
2022-11-07T13:37:44.291Z,-0.20
2022-11-07T13:39:49.867Z,-0.20
2022-11-07T13:41:54.274Z,-0.22
2022-11-07T13:44:00.191Z,-0.20
2022-11-07T13:46:06.303Z,-0.20
2022-11-07T13:48:30.103Z,-0.22
2022-11-07T13:50:41.082Z,-0.20
2022-11-07T13:52:54.426Z,-0.18
2022-11-07T13:55:14.030Z,-0.22
2022-11-07T13:57:26.368Z,-0.17
2022-11-07T13:59:50.004Z,-0.22
2022-11-07T14:01:56.310Z,-0.23
2022-11-07T14:03:59.102Z,-0.18
2022-11-07T14:06:02.932Z,-0.17
2022-11-07T14:08:37.984Z,-0.19
2022-11-07T14:10:47.243Z,-0.18
2022-11-07T14:12:53.864Z,-0.18
2022-11-07T14:14:58.652Z,-0.19
2022-11-07T14:17:01.502Z,-0.19
2022-11-07T14:19:15.253Z,-0.20
2022-11-07T14:21:32.060Z,-0.20
2022-11-07T14:23:34.637Z,-0.24
2022-11-07T14:25:37.389Z,-0.21
2022-11-07T14:27:46.637Z,-0.19
2022-11-07T14:30:15.888Z,-0.18
2022-11-07T14:32:18.863Z,-0.17
2022-11-07T14:34:22.680Z,-0.14
2022-11-07T14:36:26.262Z,-0.13
2022-11-07T14:38:28.895Z,-0.15
2022-11-07T14:40:31.741Z,-0.14
2022-11-07T14:42:34.446Z,-0.20
2022-11-07T14:44:58.248Z,-0.20
2022-11-07T14:47:01.118Z,-0.19
2022-11-07T14:49:05.137Z,-0.19
2022-11-07T14:51:12.983Z,-0.17
2022-11-07T14:53:22.403Z,-0.17
2022-11-07T14:55:33.578Z,-0.22
2022-11-07T14:57:38.425Z,-0.20
2022-11-07T14:59:42.117Z,-0.19
2022-11-07T15:02:18.084Z,-0.17
2022-11-07T15:04:38.460Z,-0.17
2022-11-07T15:06:43.603Z,-0.18
2022-11-07T15:09:00.023Z,-0.17
2022-11-07T15:11:08.207Z,-0.18
2022-11-07T15:13:25.907Z,-0.15
2022-11-07T15:15:38.156Z,-0.15
2022-11-07T15:17:49.639Z,-0.15
2022-11-07T15:20:04.447Z,-0.15
2022-11-07T15:22:07.222Z,-0.14
2022-11-07T15:24:46.380Z,-0.11
2022-11-07T15:26:59.685Z,-0.09
2022-11-07T15:29:22.465Z,-0.09
2022-11-07T15:31:28.065Z,-0.08
2022-11-07T15:33:33.094Z,-0.08
2022-11-07T15:35:44.008Z,-0.13
2022-11-07T15:37:58.573Z,-0.04
2022-11-07T15:40:01.336Z,-0.04
2022-11-07T15:42:06.015Z,-0.08
2022-11-07T15:44:08.601Z,-0.08
2022-11-07T15:46:28.995Z,-0.04
2022-11-07T15:48:41.022Z,-0.02
2022-11-07T15:50:45.400Z,0.00
2022-11-07T15:52:49.283Z,0.02
2022-11-07T15:54:51.897Z,0.01
2022-11-07T15:57:04.007Z,0.07
2022-11-07T15:59:17.679Z,0.02
2022-11-07T16:01:20.423Z,0.00
2022-11-07T16:03:25.574Z,0.02
2022-11-07T16:05:28.173Z,0.02
2022-11-07T16:07:30.965Z,0.01
2022-11-07T16:09:33.825Z,0.05
2022-11-07T16:11:36.396Z,0.06
2022-11-07T16:13:39.606Z,0.07
2022-11-07T16:15:45.257Z,0.10
2022-11-07T16:17:48.591Z,0.08
2022-11-07T16:19:51.235Z,0.11
2022-11-07T16:21:53.939Z,0.10
2022-11-07T16:23:56.618Z,0.07
2022-11-07T16:25:59.247Z,0.09
2022-11-07T16:28:03.570Z,0.04
2022-11-07T16:30:14.212Z,0.07
2022-11-07T16:32:18.679Z,0.07
2022-11-07T16:34:21.540Z,0.10
2022-11-07T16:36:28.685Z,0.09
2022-11-07T16:38:35.432Z,-0.03
2022-11-07T16:40:38.437Z,0.10
2022-11-07T16:42:41.175Z,0.10
2022-11-07T16:44:44.296Z,0.12
2022-11-07T16:46:47.055Z,0.09
2022-11-07T16:48:53.315Z,0.12
2022-11-07T16:50:57.362Z,0.09
2022-11-07T16:53:00.058Z,0.11
2022-11-07T16:55:02.733Z,0.12
2022-11-07T16:57:14.761Z,0.11
2022-11-07T16:59:22.817Z,0.12
2022-11-07T17:01:26.874Z,0.13
2022-11-07T17:03:30.238Z,0.12
2022-11-07T17:05:32.935Z,0.10
2022-11-07T17:07:35.581Z,0.14
2022-11-07T17:09:38.193Z,0.15
2022-11-07T17:11:40.960Z,0.16
2022-11-07T17:13:45.038Z,0.16
2022-11-07T17:15:47.712Z,0.15
2022-11-07T17:17:53.078Z,0.17
2022-11-07T17:19:57.790Z,0.21
2022-11-07T17:22:03.089Z,0.22
2022-11-07T17:24:06.332Z,0.18
2022-11-07T17:26:09.949Z,0.18
2022-11-07T17:28:12.564Z,0.17
2022-11-07T17:30:19.930Z,0.15
2022-11-07T17:32:22.586Z,0.13
2022-11-07T17:34:25.398Z,0.17
2022-11-07T17:36:37.442Z,0.21
2022-11-07T17:38:40.791Z,0.20
2022-11-07T17:40:43.688Z,0.20
2022-11-07T17:42:46.408Z,0.19
2022-11-07T17:44:49.005Z,0.19
2022-11-07T17:46:51.717Z,0.17
2022-11-07T17:48:57.002Z,0.10
2022-11-07T17:50:59.705Z,0.15
2022-11-07T17:53:02.303Z,0.19
2022-11-07T17:55:05.378Z,0.20
2022-11-07T17:57:09.208Z,0.18
2022-11-07T17:59:17.290Z,0.16
2022-11-07T18:01:22.259Z,0.18
2022-11-07T18:03:25.078Z,0.18
2022-11-07T18:05:33.371Z,0.18
2022-11-07T18:07:36.319Z,0.16
2022-11-07T18:09:41.004Z,0.16
2022-11-07T18:11:44.174Z,0.12
2022-11-07T18:13:47.145Z,0.12
2022-11-07T18:15:49.675Z,0.06
2022-11-07T18:17:52.300Z,0.15
2022-11-07T18:19:54.931Z,0.15
2022-11-07T18:21:57.518Z,0.14
2022-11-07T18:24:00.218Z,0.16
2022-11-07T18:26:04.361Z,0.16
2022-11-07T18:28:06.904Z,0.16
2022-11-07T18:30:10.363Z,0.18
2022-11-07T18:32:13.173Z,0.16
2022-11-07T18:34:16.180Z,0.19
2022-11-07T18:36:21.603Z,0.22
2022-11-07T18:38:24.302Z,0.21
2022-11-07T18:40:26.943Z,0.20
2022-11-07T18:42:29.561Z,0.22
2022-11-07T18:44:32.395Z,0.22
2022-11-07T18:46:35.013Z,0.23
2022-11-07T18:48:38.346Z,0.23
2022-11-07T18:50:40.991Z,0.20
2022-11-07T18:52:43.581Z,0.19
2022-11-07T18:54:46.181Z,0.22
2022-11-07T18:56:49.010Z,0.23
2022-11-07T18:58:51.745Z,0.25
2022-11-07T19:00:55.376Z,0.26
2022-11-07T19:02:58.361Z,0.22
2022-11-07T19:05:00.999Z,0.28
2022-11-07T19:07:03.683Z,0.30
2022-11-07T19:09:06.318Z,0.30
2022-11-07T19:11:12.169Z,0.31
2022-11-07T19:13:14.769Z,0.31
2022-11-07T19:15:17.501Z,0.29
2022-11-07T19:17:20.119Z,0.29
2022-11-07T19:19:23.178Z,0.30
2022-11-07T19:21:25.864Z,0.28
2022-11-07T19:23:28.765Z,0.26
2022-11-07T19:25:31.484Z,0.29
2022-11-07T19:27:35.098Z,0.29
2022-11-07T19:29:38.120Z,0.24
2022-11-07T19:31:40.813Z,0.30
2022-11-07T19:33:44.180Z,0.31
2022-11-07T19:35:47.056Z,0.28
2022-11-07T19:37:49.669Z,0.22
2022-11-07T19:39:52.331Z,0.20
2022-11-07T19:41:54.942Z,0.25
2022-11-07T19:43:59.420Z,0.28
2022-11-07T19:46:15.605Z,0.26
2022-11-07T19:48:19.287Z,0.25
2022-11-07T19:50:22.689Z,0.26
2022-11-07T19:52:25.913Z,0.26
2022-11-07T19:54:29.110Z,0.27
2022-11-07T19:56:32.483Z,0.24
2022-11-07T19:58:36.973Z,0.23
2022-11-07T20:00:39.712Z,0.23
2022-11-07T20:02:45.028Z,0.24
2022-11-07T20:04:48.191Z,0.26
2022-11-07T20:06:54.989Z,0.26
2022-11-07T20:08:57.958Z,0.26
2022-11-07T20:11:00.602Z,0.22
2022-11-07T20:13:03.266Z,0.22
2022-11-07T20:15:06.440Z,0.20
2022-11-07T20:17:09.273Z,0.20
2022-11-07T20:19:12.148Z,0.23
2022-11-07T20:21:18.767Z,0.25
2022-11-07T20:23:21.406Z,0.25
2022-11-07T20:25:24.118Z,0.27
2022-11-07T20:27:28.267Z,0.28
2022-11-07T20:29:30.986Z,0.25
2022-11-07T20:31:41.887Z,0.22
2022-11-07T20:33:44.583Z,0.28
2022-11-07T20:35:57.768Z,0.26
2022-11-07T20:38:00.488Z,0.28
2022-11-07T20:40:04.660Z,0.25
2022-11-07T20:42:07.397Z,0.25
2022-11-07T20:44:15.717Z,0.23
2022-11-07T20:46:18.303Z,0.28
2022-11-07T20:48:21.028Z,0.28
2022-11-07T20:50:23.588Z,0.27
2022-11-07T20:52:26.213Z,0.29
2022-11-07T20:54:30.119Z,0.26
2022-11-07T20:56:33.978Z,0.24
2022-11-07T20:58:38.805Z,0.24
2022-11-07T21:00:42.817Z,0.17
2022-11-07T21:02:45.473Z,0.20
2022-11-07T21:05:11.408Z,0.23
2022-11-07T21:07:10.954Z,0.24
2022-11-07T21:09:13.872Z,0.28
2022-11-07T21:11:16.910Z,0.30
2022-11-07T21:13:20.106Z,0.33
2022-11-07T21:15:22.744Z,0.33
2022-11-07T21:17:25.377Z,0.34
2022-11-07T21:19:29.450Z,0.34
2022-11-07T21:21:33.879Z,0.35
2022-11-07T21:23:37.961Z,0.37
2022-11-07T21:25:43.251Z,0.31
2022-11-07T21:27:45.866Z,0.31
2022-11-07T21:29:48.713Z,0.32
2022-11-07T21:31:51.398Z,0.31
2022-11-07T21:33:54.374Z,0.32
2022-11-07T21:35:56.983Z,0.32
2022-11-07T21:37:59.743Z,0.36
2022-11-07T21:40:02.317Z,0.37
2022-11-07T21:42:06.313Z,0.41
2022-11-07T21:44:11.753Z,0.40
2022-11-07T21:46:14.333Z,0.38
2022-11-07T21:48:16.933Z,0.36
2022-11-07T21:50:43.510Z,0.41
2022-11-07T21:52:45.166Z,0.40
2022-11-07T21:54:47.917Z,0.41
2022-11-07T21:56:50.748Z,0.42
2022-11-07T21:59:01.807Z,0.38
2022-11-07T22:01:06.119Z,0.40
2022-11-07T22:03:08.842Z,0.41
2022-11-07T22:05:14.766Z,0.40
2022-11-07T22:07:17.521Z,0.39
2022-11-07T22:09:21.589Z,0.40
2022-11-07T22:11:24.164Z,0.41
2022-11-07T22:13:27.081Z,0.43
2022-11-07T22:15:29.718Z,0.41
2022-11-07T22:17:32.315Z,0.42
2022-11-07T22:19:34.950Z,0.42
2022-11-07T22:21:37.993Z,0.45
2022-11-07T22:23:41.670Z,0.48
2022-11-07T22:25:44.412Z,0.49
2022-11-07T22:27:47.122Z,0.49
2022-11-07T22:29:50.463Z,0.49
2022-11-07T22:31:53.076Z,0.45
2022-11-07T22:33:56.387Z,0.46
2022-11-07T22:36:07.298Z,0.46
2022-11-07T22:38:09.917Z,0.47
2022-11-07T22:40:17.907Z,0.50
2022-11-07T22:42:23.891Z,0.52
2022-11-07T22:44:26.720Z,0.52
2022-11-07T22:46:31.215Z,0.53
2022-11-07T22:48:34.269Z,0.51
2022-11-07T22:50:37.063Z,0.53
2022-11-07T22:52:39.747Z,0.48
2022-11-07T22:54:42.389Z,0.48
2022-11-07T22:56:45.040Z,0.50
2022-11-07T22:58:48.204Z,0.50
2022-11-07T23:00:50.948Z,0.50
2022-11-07T23:02:53.703Z,0.48
2022-11-07T23:04:56.380Z,0.46
2022-11-07T23:06:58.964Z,0.49
2022-11-07T23:09:02.170Z,0.50
2022-11-07T23:13:35.844Z,0.54
2022-11-07T23:15:38.473Z,0.54
2022-11-07T23:17:41.689Z,0.52
2022-11-07T23:19:44.270Z,0.51
2022-11-07T23:21:47.393Z,0.48
2022-11-07T23:23:54.410Z,0.49
2022-11-07T23:25:57.178Z,0.49
2022-11-07T23:27:59.860Z,0.44
2022-11-07T23:30:02.633Z,0.51
2022-11-07T23:32:06.487Z,0.55
2022-11-07T23:34:09.586Z,0.56
2022-11-07T23:36:15.074Z,0.57
2022-11-07T23:38:18.032Z,0.60
2022-11-07T23:40:20.951Z,0.64
2022-11-07T23:42:23.596Z,0.63
2022-11-07T23:44:26.174Z,0.57
2022-11-07T23:46:47.403Z,0.61
2022-11-07T23:49:14.251Z,0.60
2022-11-07T23:51:17.402Z,0.59
2022-11-07T23:53:38.403Z,0.62
2022-11-07T23:55:41.137Z,0.61
2022-11-07T23:58:02.229Z,0.55
